Williamsburg, Missouri
Current Conditions -  °F | °C
As of 10:54 PM on Wednesday 22 Oct 2014 (Local Time) from KCOU Reporting Station
Clear Clear  
Wind Chill: 51°   Ceiling: Unl
Heat Index: 51°   Visibility: 10mi
Dew Point: 42°   Wind: 8mph
Humidity: 71%   Direction: 120°ESE
Pressure: 30.2"   Gusts: NA
Location:  38.92°N, 91.7°W
Report Text: KCOU 230354Z AUTO 12007KT 10SM CLR 11/06 A3020 RMK AO2 SLP225 T01060056
Loading
Personal Weather Stations






























Interactive Weather Map
Tropical Storm Tracking
New forecast layout! Learn more

10-Day Weather Forecast

Advertisements
Track Severe Weather on mobile